createdAt,value
2022-10-11T00:01:41.451Z,13.33
2022-10-11T00:04:08.146Z,14.95
2022-10-11T00:06:34.777Z,15.07
2022-10-11T00:09:01.304Z,16.20
2022-10-11T00:11:27.863Z,12.63
2022-10-11T00:13:54.429Z,16.50
2022-10-11T00:16:21.428Z,14.27
2022-10-11T00:18:47.982Z,15.73
2022-10-11T00:21:16.312Z,13.17
2022-10-11T00:23:43.321Z,12.70
2022-10-11T00:26:11.548Z,13.43
2022-10-11T00:28:39.223Z,15.25
2022-10-11T00:31:11.323Z,14.30
2022-10-11T00:33:37.845Z,14.30
2022-10-11T00:36:04.794Z,14.50
2022-10-11T00:38:32.143Z,14.15
2022-10-11T00:40:59.213Z,13.10
2022-10-11T00:43:32.146Z,15.50
2022-10-11T00:45:58.670Z,14.07
2022-10-11T00:48:44.239Z,14.87
2022-10-11T00:51:20.797Z,17.33
2022-10-11T00:53:49.719Z,15.43
2022-10-11T00:56:25.727Z,14.98
2022-10-11T00:58:54.316Z,14.25
2022-10-11T01:01:20.985Z,14.30
2022-10-11T01:03:47.669Z,16.42
2022-10-11T01:06:14.268Z,17.35
2022-10-11T01:08:41.949Z,14.68
2022-10-11T01:11:13.987Z,16.35
2022-10-11T01:13:58.544Z,14.88
2022-10-11T01:16:37.214Z,14.88
2022-10-11T01:19:44.271Z,15.27
2022-10-11T01:22:10.722Z,14.98
2022-10-11T01:25:00.705Z,12.73
2022-10-11T01:27:47.070Z,16.35
2022-10-11T01:30:25.722Z,15.07
2022-10-11T01:33:12.799Z,13.68
2022-10-11T01:38:34.618Z,14.68
2022-10-11T01:41:16.809Z,14.30
2022-10-11T01:43:44.816Z,14.75
2022-10-11T01:46:12.504Z,17.70
2022-10-11T01:48:52.852Z,14.02
2022-10-11T01:51:30.400Z,19.92
2022-10-11T01:54:08.921Z,14.52
2022-10-11T01:57:04.671Z,15.18
2022-10-11T01:59:59.841Z,14.73
2022-10-11T02:02:49.553Z,14.52
2022-10-11T02:05:45.483Z,14.77
2022-10-11T02:08:47.853Z,18.73
2022-10-11T02:11:32.997Z,16.02
2022-10-11T02:14:01.962Z,16.30
2022-10-11T02:16:39.479Z,14.80
2022-10-11T02:19:09.012Z,14.73
2022-10-11T02:21:40.238Z,14.40
2022-10-11T02:24:17.458Z,15.32
2022-10-11T02:29:16.538Z,13.75
2022-10-11T02:31:45.154Z,16.30
2022-10-11T02:34:18.778Z,15.82
2022-10-11T02:37:06.982Z,15.60
2022-10-11T02:39:47.462Z,17.80
2022-10-11T02:42:27.116Z,17.90
2022-10-11T02:45:00.937Z,18.92
2022-10-11T02:47:30.497Z,16.15
2022-10-11T02:49:59.175Z,17.25
2022-10-11T02:52:26.400Z,15.20
2022-10-11T02:54:52.921Z,14.65
2022-10-11T02:57:20.216Z,14.60
2022-10-11T02:59:46.777Z,15.10
2022-10-11T03:02:13.312Z,16.97
2022-10-11T03:04:39.884Z,15.30
2022-10-11T03:07:06.497Z,17.87
2022-10-11T03:09:33.078Z,16.70
2022-10-11T03:11:59.714Z,19.10
2022-10-11T03:14:26.447Z,16.55
2022-10-11T03:16:52.988Z,16.05
2022-10-11T03:19:19.658Z,15.97
2022-10-11T03:21:46.922Z,15.77
2022-10-11T03:24:13.459Z,16.45
2022-10-11T03:26:40.055Z,19.48
2022-10-11T03:29:06.639Z,16.83
2022-10-11T03:31:33.193Z,16.43
2022-10-11T03:33:59.775Z,16.53
2022-10-11T03:36:26.541Z,15.83
2022-10-11T03:38:53.098Z,15.25
2022-10-11T03:41:19.932Z,14.43
2022-10-11T03:43:46.498Z,17.02
2022-10-11T03:46:13.129Z,17.13
2022-10-11T03:48:39.652Z,17.83
2022-10-11T03:51:06.272Z,13.93
2022-10-11T03:53:32.819Z,15.02
2022-10-11T03:55:59.333Z,16.87
2022-10-11T03:58:25.888Z,16.33
2022-10-11T04:00:53.962Z,14.83
2022-10-11T04:03:20.569Z,16.33
2022-10-11T04:05:47.293Z,17.83
2022-10-11T04:08:13.813Z,19.70
2022-10-11T04:10:40.711Z,18.20
2022-10-11T04:13:07.848Z,15.65
2022-10-11T04:15:34.441Z,16.50
2022-10-11T04:18:01.601Z,14.57
2022-10-11T04:20:28.102Z,14.73
2022-10-11T04:22:54.643Z,14.73
2022-10-11T04:25:21.198Z,16.97
2022-10-11T04:27:47.913Z,15.37
2022-10-11T04:30:14.711Z,15.20
2022-10-11T04:32:41.278Z,15.85
2022-10-11T04:35:08.111Z,17.80
2022-10-11T04:37:34.806Z,15.52
2022-10-11T04:40:01.355Z,16.92
2022-10-11T04:42:27.884Z,15.17
2022-10-11T04:44:54.457Z,15.50
2022-10-11T04:47:20.959Z,19.00
2022-10-11T04:49:47.499Z,16.43
2022-10-11T04:52:14.016Z,18.13
2022-10-11T04:54:40.778Z,16.80
2022-10-11T04:57:07.309Z,16.42
2022-10-11T04:59:33.916Z,16.03
2022-10-11T05:02:00.534Z,16.75
2022-10-11T05:04:27.487Z,15.73
2022-10-11T05:06:54.067Z,19.73
2022-10-11T05:09:21.822Z,19.97
2022-10-11T05:11:48.365Z,20.75
2022-10-11T05:14:14.931Z,19.30
2022-10-11T05:16:41.584Z,20.03
2022-10-11T05:19:08.141Z,16.92
2022-10-11T05:21:34.711Z,17.93
2022-10-11T05:24:01.297Z,14.87
2022-10-11T05:26:28.359Z,16.77
2022-10-11T05:28:55.434Z,16.63
2022-10-11T05:31:22.266Z,19.80
2022-10-11T05:33:49.467Z,20.42
2022-10-11T05:36:16.309Z,19.63
2022-10-11T05:38:43.230Z,20.30
2022-10-11T05:41:13.455Z,18.80
2022-10-11T05:43:40.055Z,22.30
2022-10-11T05:46:07.218Z,19.73
2022-10-11T05:48:34.190Z,17.05
2022-10-11T05:51:03.488Z,17.53
2022-10-11T05:53:30.526Z,20.00
2022-10-11T05:55:58.034Z,16.15
2022-10-11T05:58:24.644Z,17.50
2022-10-11T06:00:51.482Z,17.43
2022-10-11T06:03:19.833Z,17.80
2022-10-11T06:05:46.761Z,17.92
2022-10-11T06:08:13.943Z,18.20
2022-10-11T06:10:40.669Z,20.38
2022-10-11T06:13:07.489Z,31.30
2022-10-11T06:15:34.825Z,29.05
2022-10-11T06:20:28.077Z,23.02
2022-10-11T06:22:54.712Z,23.65
2022-10-11T06:25:21.269Z,22.40
2022-10-11T06:27:47.840Z,24.43
2022-10-11T06:30:14.754Z,24.52
2022-10-11T06:32:41.390Z,26.15
2022-10-11T06:35:08.546Z,27.52
2022-10-11T06:37:35.302Z,23.27
2022-10-11T06:40:02.399Z,19.58
2022-10-11T06:42:29.059Z,18.60
2022-10-11T06:44:55.551Z,20.75
2022-10-11T06:47:22.130Z,23.93
2022-10-11T06:49:48.726Z,21.93
2022-10-11T06:52:15.308Z,22.00
2022-10-11T06:54:44.909Z,27.52
2022-10-11T06:57:12.037Z,22.77
2022-10-11T06:59:38.564Z,22.98
2022-10-11T07:02:05.121Z,26.17
2022-10-11T07:04:33.863Z,19.80
2022-10-11T07:07:00.652Z,22.05
2022-10-11T07:09:27.209Z,23.73
2022-10-11T07:11:53.807Z,28.10
2022-10-11T07:14:20.358Z,29.35
2022-10-11T07:16:46.891Z,28.93
2022-10-11T07:19:13.506Z,33.57
2022-10-11T07:21:40.051Z,75.55
2022-10-11T07:24:07.125Z,74.30
2022-10-11T07:26:38.270Z,95.13
2022-10-11T07:29:10.419Z,64.28
2022-10-11T07:31:39.444Z,59.00
2022-10-11T07:34:06.120Z,50.35
2022-10-11T07:36:32.790Z,42.83
2022-10-11T07:38:59.410Z,34.53
2022-10-11T07:41:26.051Z,30.85
2022-10-11T07:43:52.656Z,34.80
2022-10-11T07:46:19.349Z,32.80
2022-10-11T07:48:46.331Z,36.22
2022-10-11T07:51:19.406Z,32.63
2022-10-11T07:53:48.456Z,35.38
2022-10-11T07:56:17.663Z,33.28
2022-10-11T07:58:44.532Z,37.25
2022-10-11T08:01:12.027Z,37.92
2022-10-11T08:03:38.867Z,35.08
2022-10-11T08:06:09.182Z,34.55
2022-10-11T08:08:36.652Z,32.17
2022-10-11T08:11:03.449Z,35.17
2022-10-11T08:13:29.997Z,33.72
2022-10-11T08:15:56.918Z,32.30
2022-10-11T08:18:24.165Z,32.63
2022-10-11T08:20:50.833Z,34.80
2022-10-11T08:23:18.229Z,33.80
2022-10-11T08:28:20.919Z,33.58
2022-10-11T08:30:52.344Z,32.58
2022-10-11T08:33:20.562Z,35.13
2022-10-11T08:35:47.378Z,33.47
2022-10-11T08:38:14.963Z,35.38
2022-10-11T08:40:56.146Z,47.35
2022-10-11T08:43:22.637Z,59.97
2022-10-11T08:45:53.592Z,57.70
2022-10-11T08:48:33.250Z,47.70
2022-10-11T08:51:01.159Z,43.35
2022-10-11T08:53:44.934Z,40.58
2022-10-11T08:56:15.159Z,37.47
2022-10-11T08:58:55.042Z,29.25
2022-10-11T09:01:27.236Z,32.38
2022-10-11T09:03:54.435Z,30.90
2022-10-11T09:06:23.846Z,32.33
2022-10-11T09:09:00.694Z,33.45
2022-10-11T09:11:30.205Z,29.33
2022-10-11T09:14:17.815Z,31.65
2022-10-11T09:16:44.298Z,28.30
2022-10-11T09:19:28.562Z,23.27
2022-10-11T09:22:30.705Z,25.65
2022-10-11T09:25:08.906Z,27.17
2022-10-11T09:28:02.413Z,25.27
2022-10-11T09:30:29.851Z,22.75
2022-10-11T09:33:25.935Z,21.20
2022-10-11T09:35:52.869Z,20.23
2022-10-11T09:38:28.836Z,19.15
2022-10-11T09:41:35.771Z,18.98
2022-10-11T09:44:02.500Z,21.00
2022-10-11T09:46:37.269Z,25.88
2022-10-11T09:49:10.566Z,19.35
2022-10-11T09:51:38.535Z,20.38
2022-10-11T09:54:06.511Z,19.20
2022-10-11T09:56:40.423Z,23.30
2022-10-11T09:59:29.644Z,16.42
2022-10-11T10:02:14.585Z,15.68
2022-10-11T10:05:14.206Z,16.17
2022-10-11T10:08:09.181Z,14.23
2022-10-11T10:10:42.442Z,16.55
2022-10-11T10:13:41.109Z,18.67
2022-10-11T10:16:18.137Z,16.95
2022-10-11T10:18:50.344Z,20.42
2022-10-11T10:21:26.741Z,23.45
2022-10-11T10:23:57.123Z,26.38
2022-10-11T10:26:27.414Z,14.60
2022-10-11T10:28:58.556Z,20.13
2022-10-11T10:31:44.466Z,11.00
2022-10-11T10:34:26.467Z,16.80
2022-10-11T10:36:58.132Z,18.80
2022-10-11T10:39:47.160Z,15.57
2022-10-11T10:42:19.030Z,17.48
2022-10-11T10:44:54.276Z,18.77
2022-10-11T10:47:46.925Z,15.88
2022-10-11T10:50:23.615Z,19.33
2022-10-11T10:53:20.255Z,18.83
2022-10-11T10:58:25.316Z,15.65
2022-10-11T11:01:26.667Z,16.92
2022-10-11T11:04:05.104Z,17.05
2022-10-11T11:06:37.393Z,16.92
2022-10-11T11:09:22.916Z,19.10
2022-10-11T11:12:20.292Z,20.08
2022-10-11T11:15:31.334Z,18.75
2022-10-11T11:18:25.855Z,19.13
2022-10-11T11:21:09.180Z,14.50
2022-10-11T11:24:01.641Z,14.95
2022-10-11T11:26:44.685Z,18.05
2022-10-11T11:29:35.443Z,15.88
2022-10-11T11:32:46.575Z,17.33
2022-10-11T11:35:39.030Z,16.08
2022-10-11T11:38:29.287Z,18.00
2022-10-11T11:41:01.938Z,14.98
2022-10-11T11:43:36.833Z,15.43
2022-10-11T11:46:18.644Z,14.00
2022-10-11T11:48:45.581Z,14.57
2022-10-11T11:51:21.099Z,13.65
2022-10-11T11:54:06.313Z,15.00
2022-10-11T11:57:02.471Z,18.70
2022-10-11T11:59:58.050Z,15.93
2022-10-11T12:02:43.278Z,16.70
2022-10-11T12:05:13.333Z,22.67
2022-10-11T12:07:54.283Z,18.05
2022-10-11T12:10:29.776Z,13.10
2022-10-11T12:13:18.004Z,16.80
2022-10-11T12:16:01.593Z,21.05
2022-10-11T12:18:30.747Z,18.30
2022-10-11T12:21:17.572Z,21.60
2022-10-11T12:23:49.504Z,16.60
2022-10-11T12:26:27.940Z,17.00
2022-10-11T12:29:05.903Z,17.15
2022-10-11T12:31:36.947Z,17.00
2022-10-11T12:34:09.375Z,16.08
2022-10-11T12:36:41.410Z,19.02
2022-10-11T12:39:19.882Z,15.48
2022-10-11T12:41:53.666Z,17.27
2022-10-11T12:44:28.706Z,16.15
2022-10-11T12:46:55.211Z,25.55
2022-10-11T12:49:33.535Z,17.93
2022-10-11T12:52:42.250Z,17.00
2022-10-11T12:55:30.741Z,17.67
2022-10-11T12:58:15.883Z,19.20
2022-10-11T13:01:04.141Z,22.02
2022-10-11T13:03:43.041Z,18.50
2022-10-11T13:06:15.863Z,18.27
2022-10-11T13:08:45.735Z,14.85
2022-10-11T13:11:19.885Z,22.52
2022-10-11T13:14:09.963Z,21.23
2022-10-11T13:17:05.008Z,26.52
2022-10-11T13:19:34.651Z,23.92
2022-10-11T13:22:15.402Z,28.70
2022-10-11T13:24:42.599Z,29.42
2022-10-11T13:27:19.763Z,23.80
2022-10-11T13:32:19.921Z,18.52
2022-10-11T13:34:49.341Z,21.48
2022-10-11T13:37:22.831Z,21.45
2022-10-11T13:39:51.940Z,20.52
2022-10-11T13:42:21.480Z,21.55
2022-10-11T13:44:48.289Z,22.50
2022-10-11T13:47:18.585Z,24.13
2022-10-11T13:50:01.148Z,23.42
2022-10-11T13:52:27.674Z,20.33
2022-10-11T13:55:09.227Z,18.87
2022-10-11T13:57:44.765Z,26.10
2022-10-11T14:00:22.217Z,26.98
2022-10-11T14:02:57.153Z,23.17
2022-10-11T14:05:34.339Z,29.42
2022-10-11T14:10:30.136Z,24.92
2022-10-11T14:13:07.042Z,19.80
2022-10-11T14:15:38.152Z,26.55
2022-10-11T14:19:01.813Z,21.33
2022-10-11T14:21:46.862Z,22.13
2022-10-11T14:24:14.631Z,21.33
2022-10-11T14:26:46.905Z,19.92
2022-10-11T14:29:19.876Z,20.42
2022-10-11T14:31:46.621Z,17.77
2022-10-11T14:34:21.711Z,16.67
2022-10-11T14:36:49.591Z,20.00
2022-10-11T14:39:19.866Z,22.63
2022-10-11T14:41:46.953Z,23.85
2022-10-11T14:44:14.180Z,19.98
2022-10-11T14:46:41.398Z,16.20
2022-10-11T14:49:19.954Z,14.95
2022-10-11T14:51:50.242Z,19.40
2022-10-11T14:54:24.413Z,17.02
2022-10-11T14:56:52.913Z,21.05
2022-10-11T14:59:22.507Z,22.00
2022-10-11T15:01:54.054Z,18.13
2022-10-11T15:04:21.870Z,19.48
2022-10-11T15:06:49.242Z,17.27
2022-10-11T15:11:43.822Z,20.63
2022-10-11T15:14:10.374Z,15.95
2022-10-11T15:16:37.040Z,26.50
2022-10-11T15:19:03.849Z,26.00
2022-10-11T15:21:30.540Z,27.25
2022-10-11T15:23:57.087Z,17.45
2022-10-11T15:26:29.849Z,20.03
2022-10-11T15:28:57.537Z,18.63
2022-10-11T15:31:24.390Z,16.45
2022-10-11T15:33:50.984Z,26.30
2022-10-11T15:36:20.883Z,33.22
2022-10-11T15:38:48.662Z,26.58
2022-10-11T15:41:18.780Z,19.88
2022-10-11T15:43:47.096Z,26.70
2022-10-11T15:46:17.473Z,24.27
2022-10-11T15:48:44.939Z,19.98
2022-10-11T15:51:11.546Z,16.52
2022-10-11T15:53:38.202Z,19.88
2022-10-11T15:56:08.595Z,17.80
2022-10-11T15:58:38.875Z,20.48
2022-10-11T16:01:13.001Z,17.98
2022-10-11T16:03:39.555Z,19.98
2022-10-11T16:06:06.666Z,25.73
2022-10-11T16:13:27.019Z,21.67
2022-10-11T16:15:54.117Z,31.53
2022-10-11T16:18:22.131Z,30.38
2022-10-11T16:20:51.792Z,23.38
2022-10-11T16:23:20.558Z,22.17
2022-10-11T16:25:56.230Z,19.67
2022-10-11T16:28:22.884Z,22.00
2022-10-11T16:30:49.470Z,22.13
2022-10-11T16:33:16.114Z,23.80
2022-10-11T16:35:43.034Z,22.38
2022-10-11T16:38:10.028Z,22.65
2022-10-11T16:40:41.221Z,21.17
2022-10-11T16:43:08.298Z,19.27
2022-10-11T16:45:36.024Z,19.40
2022-10-11T16:48:03.238Z,26.88
2022-10-11T16:50:30.167Z,22.80
2022-10-11T16:52:57.298Z,23.95
2022-10-11T16:55:24.301Z,27.95
2022-10-11T16:57:50.972Z,25.10
2022-10-11T17:00:17.718Z,23.98
2022-10-11T17:02:44.258Z,22.13
2022-10-11T17:05:10.842Z,22.10
2022-10-11T17:07:37.441Z,21.42
2022-10-11T17:10:05.114Z,22.77
2022-10-11T17:12:32.550Z,21.88
2022-10-11T17:17:26.469Z,22.63
2022-10-11T17:22:20.152Z,22.48
2022-10-11T17:24:47.085Z,24.27
2022-10-11T17:27:13.851Z,24.08
2022-10-11T17:29:40.765Z,23.17
2022-10-11T17:32:07.668Z,23.45
2022-10-11T17:34:34.475Z,22.05
2022-10-11T17:37:01.124Z,23.77
2022-10-11T17:39:27.759Z,26.63
2022-10-11T17:41:54.356Z,26.98
2022-10-11T17:44:21.801Z,27.37
2022-10-11T17:49:15.143Z,23.83
2022-10-11T17:51:42.585Z,22.00
2022-10-11T17:54:13.169Z,24.95
2022-10-11T17:56:41.480Z,23.40
2022-10-11T17:59:14.424Z,30.98
2022-10-11T18:01:41.009Z,30.30
2022-10-11T18:04:10.163Z,31.27
2022-10-11T18:06:39.346Z,34.33
2022-10-11T18:09:06.297Z,30.23
2022-10-11T18:11:33.312Z,31.10
2022-10-11T18:14:00.268Z,32.78
2022-10-11T18:16:29.643Z,32.90
2022-10-11T18:18:57.552Z,34.72
2022-10-11T18:21:33.554Z,32.00
2022-10-11T18:24:03.732Z,31.17
2022-10-11T18:26:31.054Z,31.30
2022-10-11T18:28:58.604Z,29.90
2022-10-11T18:31:27.537Z,34.53
2022-10-11T18:33:54.730Z,32.45
2022-10-11T18:36:24.789Z,33.67
2022-10-11T18:38:58.971Z,35.85
2022-10-11T18:41:30.785Z,64.05
2022-10-11T18:44:03.125Z,55.30
2022-10-11T18:46:30.007Z,41.00
2022-10-11T18:48:58.896Z,45.10
2022-10-11T18:51:28.539Z,39.25
2022-10-11T18:53:56.008Z,34.33
2022-10-11T18:58:54.734Z,36.38
2022-10-11T19:01:24.804Z,48.72
2022-10-11T19:03:54.647Z,42.88
2022-10-11T19:06:23.517Z,34.53
2022-10-11T19:08:53.199Z,40.55
2022-10-11T19:11:22.253Z,38.30
2022-10-11T19:13:55.494Z,41.22
2022-10-11T19:16:22.328Z,38.58
2022-10-11T19:18:50.101Z,36.85
2022-10-11T19:21:17.108Z,36.67
2022-10-11T19:23:45.625Z,35.35
2022-10-11T19:26:26.338Z,35.97
2022-10-11T19:28:58.427Z,39.88
2022-10-11T19:31:25.554Z,39.90
2022-10-11T19:33:52.247Z,37.08
2022-10-11T19:36:19.252Z,37.38
2022-10-11T19:38:48.429Z,38.15
2022-10-11T19:41:17.293Z,38.00
2022-10-11T19:43:44.502Z,40.38
2022-10-11T19:46:20.193Z,37.95
2022-10-11T19:48:51.098Z,36.80
2022-10-11T19:51:21.533Z,40.42
2022-10-11T19:53:50.039Z,43.33
2022-10-11T19:56:18.516Z,40.22
2022-10-11T19:58:45.280Z,40.30
2022-10-11T20:01:16.473Z,42.10
2022-10-11T20:03:52.520Z,39.90
2022-10-11T20:06:22.597Z,42.00
2022-10-11T20:08:59.871Z,40.65
2022-10-11T20:11:37.335Z,40.95
2022-10-11T20:14:04.203Z,38.00
2022-10-11T20:16:30.826Z,38.47
2022-10-11T20:18:59.256Z,39.03
2022-10-11T20:21:27.901Z,39.45
2022-10-11T20:23:58.759Z,44.50
2022-10-11T20:26:26.837Z,42.67
2022-10-11T20:28:56.085Z,38.50
2022-10-11T20:31:25.934Z,46.03
2022-10-11T20:33:56.027Z,44.97
2022-10-11T20:36:24.167Z,47.63
2022-10-11T20:38:51.632Z,47.60
2022-10-11T20:43:51.061Z,41.45
2022-10-11T20:46:20.197Z,44.42
2022-10-11T20:48:49.248Z,45.13
2022-10-11T20:51:16.121Z,45.47
2022-10-11T20:53:42.639Z,41.95
2022-10-11T20:56:11.057Z,46.80
2022-10-11T20:58:38.375Z,42.20
2022-10-11T21:01:13.880Z,44.42
2022-10-11T21:03:41.175Z,41.38
2022-10-11T21:06:08.227Z,48.30
2022-10-11T21:08:36.105Z,44.38
2022-10-11T21:11:03.144Z,45.45
2022-10-11T21:13:30.694Z,41.25
2022-10-11T21:16:04.748Z,43.97
2022-10-11T21:18:31.414Z,41.25
2022-10-11T21:20:58.249Z,36.85
2022-10-11T21:23:24.804Z,38.47
2022-10-11T21:25:51.303Z,42.37
2022-10-11T21:28:17.869Z,43.67
2022-10-11T21:30:44.406Z,41.60
2022-10-11T21:33:10.926Z,40.43
2022-10-11T21:35:39.895Z,39.87
2022-10-11T21:38:06.400Z,41.25
2022-10-11T21:40:32.962Z,38.70
2022-10-11T21:42:59.506Z,35.77
2022-10-11T21:45:25.997Z,34.87
2022-10-11T21:47:52.960Z,38.33
2022-10-11T21:50:19.514Z,37.42
2022-10-11T21:52:46.065Z,36.45
2022-10-11T21:55:12.816Z,38.60
2022-10-11T21:57:42.703Z,41.42
2022-10-11T22:00:10.165Z,39.65
2022-10-11T22:07:30.175Z,40.28
2022-10-11T22:09:56.769Z,40.45
2022-10-11T22:12:23.366Z,41.22
2022-10-11T22:14:49.914Z,42.70
2022-10-11T22:17:16.527Z,41.58
2022-10-11T22:19:43.131Z,42.10
2022-10-11T22:22:09.669Z,39.70
2022-10-11T22:24:36.205Z,41.57
2022-10-11T22:27:02.786Z,43.40
2022-10-11T22:29:33.896Z,41.55
2022-10-11T22:32:00.855Z,45.15
2022-10-11T22:34:31.135Z,43.23
2022-10-11T22:36:57.663Z,43.97
2022-10-11T22:39:24.242Z,44.13
2022-10-11T22:41:50.760Z,44.88
2022-10-11T22:44:17.305Z,45.67
2022-10-11T22:46:43.854Z,47.53
2022-10-11T22:49:10.462Z,46.30
2022-10-11T22:51:37.084Z,48.08
2022-10-11T22:54:03.790Z,50.85
2022-10-11T22:56:30.337Z,53.42
2022-10-11T22:58:58.534Z,50.27
2022-10-11T23:01:25.136Z,50.35
2022-10-11T23:03:51.808Z,53.95
2022-10-11T23:06:18.416Z,56.25
2022-10-11T23:08:44.954Z,54.53
2022-10-11T23:11:11.905Z,52.80
2022-10-11T23:13:38.458Z,48.15
2022-10-11T23:16:07.089Z,49.27
2022-10-11T23:18:34.017Z,48.15
2022-10-11T23:21:01.487Z,49.58
2022-10-11T23:23:28.070Z,50.10
2022-10-11T23:26:15.152Z,52.83
2022-10-11T23:31:14.968Z,51.97
2022-10-11T23:33:41.516Z,51.33
2022-10-11T23:36:15.149Z,50.63
2022-10-11T23:38:41.741Z,55.45
2022-10-11T23:41:08.306Z,56.23
2022-10-11T23:43:34.936Z,51.50
2022-10-11T23:46:01.500Z,50.80
2022-10-11T23:48:28.048Z,49.00
2022-10-11T23:50:54.566Z,50.17
2022-10-11T23:53:21.134Z,53.20
2022-10-11T23:55:47.702Z,50.63
2022-10-11T23:58:14.272Z,54.25
